x

Point Arguello, Ca (ptgc1) Weather Station

7:00pm - Mon 22nd Sep 2014 All times are PDT. -7 hours from GMT.

  • Wind
    20mph, 21mph gusts
  • Air Temp 63°f
  • Sea Pressure 1014.3mb
  • Point Arguello, Ca
  • Point Arguello, Ca

More Historic Weather Station data

Upgrade to MSW Pro to gain access to the past 30 days of data for over 8000 Wavebouys and Weather Stations around the globe.

Join Pro

Comparision Forecast

View Surf forecast
   
Mon 09/22 7:00pm 20 21 mph 1014.3mb 63f
6:00pm 21 22 mph 1014.2mb 63f
5:00pm 18 21 mph 1014.4mb 62f
4:00pm 21 22 mph 1014.8mb 62f
3:00pm 18 21 mph 1015mb 62f
2:00pm 18 21 mph 1015.6mb 62f
1:00pm 16 17 mph 1016.3mb 62f
12:00pm 15 17 mph 1016.7mb 62f
11:00am 15 17 mph 1016.9mb 62f
10:00am 17 18 mph 1016.5mb 61f
9:00am 17 20 mph 1016.1mb 61f
8:00am 16 17 mph 1015.8mb 62f
7:00am 15 17 mph 1015.3mb 60f
6:00am 15 16 mph 1014.9mb 60f
5:00am 13 15 mph 1014.6mb 62f
4:00am 21 24 mph 1014.3mb 62f
3:00am 24 28 mph 1014.5mb 62f
2:00am 24 28 mph 1014.8mb 62f
1:00am 28 30 mph 1014.8mb 63f
12:00am 28 30 mph 1014.9mb 62f
Sun 09/21 11:00pm 24 26 mph 1015.3mb 62f
10:00pm 24 26 mph 1015.3mb 62f
9:00pm 24 25 mph 1015.4mb 62f
8:00pm 23 25 mph 1015.2mb 62f
7:00pm 20 21 mph 1015.1mb 63f
6:00pm 17 18 mph 1015.1mb 63f
5:00pm 17 20 mph 1014.9mb 63f
4:00pm 17 20 mph 1015.3mb 62f
3:00pm 15 17 mph 1015.7mb 63f
2:00pm 15 16 mph 1016mb 62f
1:00pm 14 15 mph 1016.7mb 62f
12:00pm 15 17 mph 1016.8mb 62f
11:00am 15 16 mph 1016.7mb 63f
10:00am 15 16 mph 1016.7mb 61f
9:00am 15
mph
1016.3mb 63f
8:00am 14 16 mph 1015.8mb 62f
7:00am 14 15 mph 1015.1mb 62f
6:00am 13 15 mph 1014.8mb 62f
5:00am 15
mph
1014.3mb 61f
4:00am 15
mph
1014mb 62f
3:00am 14 15 mph 1013.8mb 62f
2:00am 13 14 mph 1014.1mb 62f
1:00am 16 17 mph 1014.2mb 62f
12:00am 15 16 mph 1014.4mb 62f
Sat 09/20 11:00pm 16 18 mph 1014.7mb 63f
10:00pm 17 18 mph 1014.3mb 64f
9:00pm 16 18 mph 1013.9mb 64f
8:00pm 11 13 mph 1013.5mb 63f
7:00pm 14 15 mph 1013.3mb 63f
6:00pm 15 16 mph 1013.1mb 63f
5:00pm 13 14 mph 1013.2mb 63f
4:00pm 9 10 mph 1013.4mb 63f
3:00pm 7 8 mph 1013.9mb 62f
2:00pm 5
mph
1014.2mb 62f
1:00pm 6
mph
1014.7mb 62f
12:00pm 7
mph
1014.9mb 61f
11:00am 10 11 mph 1015.1mb 60f
10:00am 14
mph
1014.9mb 61f
9:00am 13 14 mph 1014.3mb 62f
8:00am 11 13 mph 1013.8mb 61f
7:00am 11 13 mph 1013.2mb 61f
6:00am 14 15 mph 1012.5mb 61f
5:00am 14 15 mph 1012.2mb 61f
4:00am 13 14 mph 1012.2mb 61f
3:00am 14
mph
1012.3mb 61f
2:00am 14 15 mph 1012.4mb 61f
1:00am 21 22 mph 1012.1mb 61f
12:00am 22 24 mph 1012.2mb 62f
Fri 09/19 11:00pm 18
mph
1012.4mb 64f
10:00pm 18 21 mph 1012.5mb 64f
9:00pm 14 15 mph 1012.5mb 64f
8:00pm 15 16 mph 1012mb 64f
7:00pm 14 15 mph 1011.8mb 65f
6:00pm 11 13 mph 1011.9mb 64f
5:00pm 6 7 mph 1012.1mb 65f
4:00pm 5
mph
1012.1mb 65f
3:00pm 3 5 mph 1012.2mb 67f
2:00pm 3 5 mph 1012.6mb 65f
1:00pm 5 7 mph 1013mb 65f
12:00pm 6 7 mph 1013mb 64f
11:00am 9 10 mph 1013.1mb 63f
10:00am 13
mph
1013.2mb 63f
9:00am 14 15 mph 1013.2mb 63f
8:00am 15 16 mph 1012.9mb 62f
7:00am 16 18 mph 1012.4mb 63f
6:00am 14 15 mph 1012mb 63f
5:00am 16 17 mph 1011.6mb 62f
4:00am 17 18 mph 1011.6mb 63f